createdAt,value
2019-02-15T00:01:29.092Z,11.95
2019-02-15T00:03:56.434Z,13.00
2019-02-15T00:06:24.043Z,10.88
2019-02-15T00:08:51.460Z,12.15
2019-02-15T00:11:19.263Z,12.35
2019-02-15T00:13:46.863Z,10.72
2019-02-15T00:16:14.589Z,11.63
2019-02-15T00:18:51.189Z,12.10
2019-02-15T00:21:25.587Z,12.50
2019-02-15T00:23:53.316Z,13.55
2019-02-15T00:26:21.114Z,11.30
2019-02-15T00:28:48.872Z,11.60
2019-02-15T00:31:19.410Z,12.90
2019-02-15T00:33:47.164Z,11.25
2019-02-15T00:36:14.521Z,12.10
2019-02-15T00:38:42.692Z,11.57
2019-02-15T00:41:11.470Z,12.23
2019-02-15T00:43:39.145Z,12.33
2019-02-15T00:46:20.386Z,11.68
2019-02-15T00:48:48.077Z,11.15
2019-02-15T00:51:47.218Z,10.48
2019-02-15T00:54:34.573Z,13.35
2019-02-15T00:57:20.480Z,13.40
2019-02-15T01:00:19.792Z,13.38
2019-02-15T01:03:15.822Z,14.00
2019-02-15T01:06:14.855Z,12.23
2019-02-15T01:08:55.614Z,12.30
2019-02-15T01:11:33.143Z,11.22
2019-02-15T01:14:00.475Z,13.32
2019-02-15T01:16:27.862Z,13.58
2019-02-15T01:18:55.417Z,12.33
2019-02-15T01:21:22.898Z,12.78
2019-02-15T01:23:50.350Z,11.85
2019-02-15T01:26:34.565Z,10.90
2019-02-15T01:29:22.885Z,10.13
2019-02-15T01:32:12.748Z,8.33
2019-02-15T01:35:06.092Z,8.45
2019-02-15T01:37:40.076Z,10.00
2019-02-15T01:40:27.118Z,10.53
2019-02-15T01:43:19.698Z,10.35
2019-02-15T01:45:53.452Z,9.38
2019-02-15T01:48:20.982Z,9.33
2019-02-15T01:50:48.743Z,11.15
2019-02-15T01:53:16.454Z,10.15
2019-02-15T01:55:44.264Z,13.28
2019-02-15T01:58:11.689Z,10.45
2019-02-15T02:00:39.260Z,11.97
2019-02-15T02:03:06.636Z,13.00
2019-02-15T02:05:34.466Z,11.35
2019-02-15T02:08:02.400Z,11.25
2019-02-15T02:10:30.209Z,10.85
2019-02-15T02:12:57.831Z,12.00
2019-02-15T02:15:25.143Z,11.60
2019-02-15T02:17:52.650Z,11.35
2019-02-15T02:20:20.126Z,10.70
2019-02-15T02:22:47.509Z,9.30
2019-02-15T02:25:15.126Z,8.70
2019-02-15T02:27:42.637Z,9.13
2019-02-15T02:30:10.445Z,7.67
2019-02-15T02:32:37.983Z,8.13
2019-02-15T02:35:05.634Z,7.92
2019-02-15T02:37:33.091Z,8.53
2019-02-15T02:40:00.882Z,8.78
2019-02-15T02:42:28.342Z,8.05
2019-02-15T02:44:56.133Z,8.00
2019-02-15T02:47:24.412Z,8.78
2019-02-15T02:49:52.082Z,8.65
2019-02-15T02:52:19.407Z,9.83
2019-02-15T02:54:46.986Z,9.58
2019-02-15T02:57:14.651Z,9.60
2019-02-15T02:59:42.150Z,11.22
2019-02-15T03:02:09.549Z,11.05
2019-02-15T03:04:37.059Z,9.55
2019-02-15T03:07:04.973Z,9.10
2019-02-15T03:09:33.709Z,10.15
2019-02-15T03:12:01.130Z,10.80
2019-02-15T03:14:28.649Z,11.00
2019-02-15T03:16:56.216Z,11.38
2019-02-15T03:19:23.755Z,10.82
2019-02-15T03:21:51.439Z,11.60
2019-02-15T03:24:19.093Z,10.23
2019-02-15T03:26:46.526Z,11.97
2019-02-15T03:29:14.011Z,10.80
2019-02-15T03:31:41.360Z,10.78
2019-02-15T03:34:08.825Z,10.88
2019-02-15T03:37:02.164Z,11.12
2019-02-15T03:39:49.207Z,10.15
2019-02-15T03:42:16.947Z,11.00
2019-02-15T03:44:44.413Z,9.80
2019-02-15T03:47:13.692Z,11.08
2019-02-15T03:49:41.216Z,12.05
2019-02-15T03:52:08.855Z,11.35
2019-02-15T03:54:36.787Z,11.30
2019-02-15T03:57:04.296Z,12.10
2019-02-15T03:59:31.808Z,11.38
2019-02-15T04:01:59.143Z,11.95
2019-02-15T04:04:26.530Z,10.93
2019-02-15T04:06:54.148Z,12.00
2019-02-15T04:09:21.662Z,10.80
2019-02-15T04:11:49.091Z,10.53
2019-02-15T04:14:16.614Z,11.35
2019-02-15T04:16:43.944Z,11.90
2019-02-15T04:19:11.346Z,12.35
2019-02-15T04:21:38.931Z,10.28
2019-02-15T04:24:06.304Z,11.53
2019-02-15T04:26:33.810Z,11.57
2019-02-15T04:29:01.433Z,10.82
2019-02-15T04:31:29.098Z,10.53
2019-02-15T04:33:56.763Z,11.03
2019-02-15T04:36:24.100Z,11.97
2019-02-15T04:38:51.483Z,10.10
2019-02-15T04:41:18.820Z,11.78
2019-02-15T04:43:46.297Z,12.70
2019-02-15T04:46:13.776Z,11.88
2019-02-15T04:48:41.512Z,12.18
2019-02-15T04:51:09.259Z,12.95
2019-02-15T04:53:36.708Z,12.43
2019-02-15T04:56:04.515Z,13.48
2019-02-15T04:58:32.013Z,12.73
2019-02-15T05:00:59.499Z,14.03
2019-02-15T05:03:27.014Z,14.53
2019-02-15T05:05:54.718Z,13.30
2019-02-15T05:08:22.815Z,11.18
2019-02-15T05:10:50.670Z,10.93
2019-02-15T05:13:18.417Z,11.28
2019-02-15T05:15:46.113Z,11.68
2019-02-15T05:18:13.736Z,11.00
2019-02-15T05:20:41.663Z,10.35
2019-02-15T05:23:10.489Z,11.50
2019-02-15T05:25:38.031Z,10.50
2019-02-15T05:28:05.355Z,11.43
2019-02-15T05:30:32.704Z,11.20
2019-02-15T05:33:00.067Z,9.70
2019-02-15T05:35:28.327Z,11.05
2019-02-15T05:37:55.681Z,9.95
2019-02-15T05:40:23.082Z,11.57
2019-02-15T05:42:50.548Z,11.03
2019-02-15T05:45:18.370Z,9.83
2019-02-15T05:47:46.214Z,9.95
2019-02-15T05:50:14.118Z,11.63
2019-02-15T05:52:41.459Z,11.10
2019-02-15T05:55:08.946Z,9.50
2019-02-15T05:57:36.295Z,9.88
2019-02-15T06:00:04.139Z,10.23
2019-02-15T06:02:31.798Z,9.63
2019-02-15T06:04:59.348Z,9.58
2019-02-15T06:07:27.202Z,10.48
2019-02-15T06:09:54.680Z,9.30
2019-02-15T06:12:22.175Z,10.23
2019-02-15T06:14:49.925Z,8.45
2019-02-15T06:17:18.060Z,10.03
2019-02-15T06:19:45.434Z,8.83
2019-02-15T06:22:12.784Z,11.68
2019-02-15T06:24:40.292Z,14.43
2019-02-15T06:27:07.945Z,13.50
2019-02-15T06:29:35.444Z,14.03
2019-02-15T06:32:02.821Z,13.68
2019-02-15T06:34:30.550Z,13.40
2019-02-15T06:36:57.916Z,13.32
2019-02-15T06:39:25.458Z,13.68
2019-02-15T06:41:53.080Z,24.87
2019-02-15T06:44:20.683Z,29.20
2019-02-15T06:46:48.185Z,32.40
2019-02-15T06:49:15.820Z,30.55
2019-02-15T06:51:43.190Z,28.92
2019-02-15T06:54:10.798Z,24.12
2019-02-15T06:56:38.302Z,17.15
2019-02-15T06:59:35.325Z,17.37
2019-02-15T07:02:28.519Z,16.07
2019-02-15T07:05:16.242Z,39.23
2019-02-15T07:07:44.090Z,40.83
2019-02-15T07:10:11.527Z,41.42
2019-02-15T07:12:39.303Z,42.23
2019-02-15T07:15:06.835Z,43.50
2019-02-15T07:17:34.407Z,40.58
2019-02-15T07:20:01.863Z,34.08
2019-02-15T07:22:30.305Z,30.75
2019-02-15T07:24:58.009Z,31.77
2019-02-15T07:27:25.831Z,31.20
2019-02-15T07:29:53.177Z,30.72
2019-02-15T07:32:20.603Z,23.55
2019-02-15T07:34:48.182Z,20.50
2019-02-15T07:37:15.574Z,14.95
2019-02-15T07:39:42.951Z,13.45
2019-02-15T07:42:10.476Z,12.63
2019-02-15T07:44:38.200Z,13.40
2019-02-15T07:47:05.683Z,13.32
2019-02-15T07:49:33.624Z,15.53
2019-02-15T07:52:01.089Z,15.10
2019-02-15T07:54:28.624Z,14.68
2019-02-15T07:56:56.562Z,16.23
2019-02-15T07:59:24.055Z,16.30
2019-02-15T08:01:51.526Z,13.20
2019-02-15T08:04:19.023Z,11.28
2019-02-15T08:06:46.563Z,11.43
2019-02-15T08:09:14.398Z,10.70
2019-02-15T08:11:42.043Z,11.25
2019-02-15T08:14:14.867Z,10.80
2019-02-15T08:16:39.756Z,10.50
2019-02-15T08:19:07.232Z,11.22
2019-02-15T08:21:34.894Z,10.43
2019-02-15T08:24:02.420Z,10.98
2019-02-15T08:26:30.211Z,10.72
2019-02-15T08:28:57.995Z,11.25
2019-02-15T08:31:25.616Z,10.08
2019-02-15T08:33:53.792Z,10.50
2019-02-15T08:36:21.153Z,11.90
2019-02-15T08:38:48.625Z,11.85
2019-02-15T08:41:16.167Z,11.43
2019-02-15T08:43:44.252Z,12.00
2019-02-15T08:46:11.635Z,12.55
2019-02-15T08:48:45.862Z,12.82
2019-02-15T08:51:09.483Z,13.90
2019-02-15T08:53:36.861Z,13.55
2019-02-15T08:56:04.502Z,11.95
2019-02-15T08:58:32.304Z,12.05
2019-02-15T09:01:00.008Z,13.38
2019-02-15T09:03:27.660Z,13.15
2019-02-15T09:05:55.917Z,12.65
2019-02-15T09:08:23.322Z,13.10
2019-02-15T09:10:51.090Z,12.58
2019-02-15T09:13:19.052Z,12.43
2019-02-15T09:15:46.796Z,11.70
2019-02-15T09:18:14.966Z,12.00
2019-02-15T09:20:42.871Z,13.80
2019-02-15T09:23:12.254Z,12.88
2019-02-15T09:25:40.109Z,12.43
2019-02-15T09:28:16.534Z,12.33
2019-02-15T09:30:47.028Z,11.70
2019-02-15T09:33:16.803Z,11.95
2019-02-15T09:35:44.462Z,12.50
2019-02-15T09:38:12.582Z,12.58
2019-02-15T09:40:40.047Z,14.75
2019-02-15T09:43:07.506Z,13.13
2019-02-15T09:45:35.002Z,13.70
2019-02-15T09:48:02.700Z,15.05
2019-02-15T09:50:30.610Z,13.40
2019-02-15T09:52:58.104Z,14.05
2019-02-15T09:55:25.556Z,14.00
2019-02-15T09:57:53.142Z,14.55
2019-02-15T10:00:20.622Z,14.55
2019-02-15T10:02:48.146Z,13.90
2019-02-15T10:05:17.258Z,15.63
2019-02-15T10:07:45.334Z,13.60
2019-02-15T10:10:13.380Z,14.03
2019-02-15T10:12:40.881Z,13.50
2019-02-15T10:15:08.838Z,14.65
2019-02-15T10:17:36.160Z,12.88
2019-02-15T10:20:04.212Z,14.78
2019-02-15T10:22:32.309Z,14.45
2019-02-15T10:25:01.113Z,13.50
2019-02-15T10:27:28.581Z,14.90
2019-02-15T10:29:56.024Z,13.37
2019-02-15T10:32:23.411Z,14.63
2019-02-15T10:34:50.788Z,14.65
2019-02-15T10:37:18.504Z,15.25
2019-02-15T10:39:46.002Z,15.85
2019-02-15T10:42:13.604Z,16.17
2019-02-15T10:44:41.090Z,16.75
2019-02-15T10:47:14.342Z,16.03
2019-02-15T10:49:38.513Z,16.07
2019-02-15T10:52:05.989Z,16.48
2019-02-15T10:54:33.445Z,17.30
2019-02-15T10:57:00.894Z,16.50
2019-02-15T10:59:28.637Z,17.60
2019-02-15T11:01:56.456Z,16.93
2019-02-15T11:04:24.060Z,17.07
2019-02-15T11:06:51.777Z,17.27
2019-02-15T11:09:19.264Z,16.93
2019-02-15T11:11:47.028Z,17.90
2019-02-15T11:14:14.764Z,17.75
2019-02-15T11:16:47.295Z,20.90
2019-02-15T11:19:11.428Z,17.50
2019-02-15T11:21:38.834Z,17.80
2019-02-15T11:24:06.678Z,18.80
2019-02-15T11:26:34.112Z,18.30
2019-02-15T11:29:01.447Z,18.07
2019-02-15T11:31:28.867Z,18.23
2019-02-15T11:33:56.598Z,18.00
2019-02-15T11:36:24.257Z,19.77
2019-02-15T11:38:52.883Z,18.23
2019-02-15T11:41:20.416Z,18.90
2019-02-15T11:43:48.278Z,19.60
2019-02-15T11:46:15.832Z,19.33
2019-02-15T11:48:43.572Z,18.93
2019-02-15T11:51:11.196Z,20.13
2019-02-15T11:53:38.722Z,20.47
2019-02-15T11:56:06.219Z,20.07
2019-02-15T11:58:33.757Z,19.53
2019-02-15T12:01:02.188Z,17.13
2019-02-15T12:03:29.570Z,19.10
2019-02-15T12:05:57.641Z,18.73
2019-02-15T12:08:25.229Z,18.53
2019-02-15T12:10:52.754Z,18.57
2019-02-15T12:13:20.389Z,19.70
2019-02-15T12:15:47.964Z,17.03
2019-02-15T12:18:15.362Z,19.60
2019-02-15T12:20:42.843Z,17.83
2019-02-15T12:23:10.534Z,19.40
2019-02-15T12:25:38.164Z,18.80
2019-02-15T12:28:05.548Z,19.03
2019-02-15T12:30:33.046Z,20.03
2019-02-15T12:33:00.786Z,19.30
2019-02-15T12:35:28.857Z,18.00
2019-02-15T12:37:56.671Z,18.93
2019-02-15T12:40:24.013Z,18.93
2019-02-15T12:42:51.779Z,17.53
2019-02-15T12:45:19.248Z,18.87
2019-02-15T12:47:47.315Z,18.20
2019-02-15T12:50:14.971Z,19.40
2019-02-15T12:52:42.389Z,17.50
2019-02-15T12:55:10.101Z,18.87
2019-02-15T12:57:37.636Z,17.50
2019-02-15T13:00:06.991Z,16.60
2019-02-15T13:02:34.822Z,17.13
2019-02-15T13:05:02.914Z,15.73
2019-02-15T13:07:31.767Z,17.63
2019-02-15T13:09:59.796Z,15.90
2019-02-15T13:12:27.514Z,16.57
2019-02-15T13:14:55.240Z,15.83
2019-02-15T13:17:24.730Z,16.53
2019-02-15T13:19:52.396Z,16.30
2019-02-15T13:28:56.657Z,16.50
2019-02-15T13:34:20.768Z,16.70
2019-02-15T13:36:48.182Z,18.73
2019-02-15T13:39:15.640Z,17.43
2019-02-15T13:41:43.312Z,18.07
2019-02-15T13:44:10.834Z,18.47
2019-02-15T13:46:39.456Z,17.70
2019-02-15T13:49:07.415Z,18.63
2019-02-15T13:51:35.168Z,16.60
2019-02-15T13:54:02.676Z,15.50
2019-02-15T13:56:30.379Z,16.10
2019-02-15T13:58:58.548Z,17.43
2019-02-15T14:01:26.005Z,16.07
2019-02-15T14:03:54.014Z,16.17
2019-02-15T14:06:21.696Z,16.13
2019-02-15T14:08:49.468Z,14.43
2019-02-15T14:11:16.988Z,16.67
2019-02-15T14:13:45.492Z,15.50
2019-02-15T14:16:12.894Z,15.20
2019-02-15T14:18:40.348Z,15.63
2019-02-15T14:21:08.075Z,15.10
2019-02-15T14:23:36.031Z,15.37
2019-02-15T14:26:03.352Z,14.70
2019-02-15T14:28:30.737Z,15.63
2019-02-15T14:30:58.056Z,16.13
2019-02-15T14:33:25.596Z,14.93
2019-02-15T14:35:52.981Z,14.93
2019-02-15T14:38:20.646Z,14.83
2019-02-15T14:40:48.549Z,18.27
2019-02-15T14:43:16.005Z,14.90
2019-02-15T14:45:43.548Z,16.80
2019-02-15T14:48:11.020Z,16.73
2019-02-15T14:50:38.903Z,16.40
2019-02-15T14:53:07.248Z,17.73
2019-02-15T14:55:35.062Z,16.43
2019-02-15T14:58:02.680Z,17.60
2019-02-15T15:00:30.433Z,20.03
2019-02-15T15:02:58.327Z,20.17
2019-02-15T15:05:25.858Z,18.73
2019-02-15T15:07:53.306Z,19.77
2019-02-15T15:10:21.598Z,19.70
2019-02-15T15:12:49.306Z,20.27
2019-02-15T15:15:17.193Z,20.93
2019-02-15T15:17:44.731Z,22.67
2019-02-15T15:20:12.424Z,21.23
2019-02-15T15:22:40.395Z,21.57
2019-02-15T15:25:08.997Z,21.30
2019-02-15T15:27:36.683Z,21.00
2019-02-15T15:30:04.774Z,20.73
2019-02-15T15:32:32.363Z,21.27
2019-02-15T15:35:00.221Z,21.23
2019-02-15T15:37:27.714Z,21.07
2019-02-15T15:39:55.546Z,22.70
2019-02-15T15:42:22.910Z,22.00
2019-02-15T15:44:50.425Z,21.50
2019-02-15T15:47:17.982Z,21.93
2019-02-15T15:49:46.227Z,19.37
2019-02-15T15:52:14.099Z,21.83
2019-02-15T15:54:42.268Z,22.03
2019-02-15T15:57:09.864Z,21.70
2019-02-15T15:59:37.766Z,23.10
2019-02-15T16:02:05.857Z,22.90
2019-02-15T16:04:33.838Z,23.40
2019-02-15T16:07:01.355Z,24.10
2019-02-15T16:09:28.953Z,23.53
2019-02-15T16:11:56.347Z,24.60
2019-02-15T16:14:24.932Z,25.67
2019-02-15T16:16:52.473Z,24.53
2019-02-15T16:19:20.136Z,26.87
2019-02-15T16:21:47.624Z,25.87
2019-02-15T16:24:14.970Z,25.03
2019-02-15T16:26:42.371Z,25.37
2019-02-15T16:29:09.872Z,25.23
2019-02-15T16:31:37.589Z,26.00
2019-02-15T16:34:05.317Z,25.70
2019-02-15T16:36:32.824Z,27.80
2019-02-15T16:39:00.990Z,26.50
2019-02-15T16:41:28.846Z,28.00
2019-02-15T16:43:56.307Z,23.67
2019-02-15T16:46:23.755Z,23.83
2019-02-15T16:48:51.548Z,25.10
2019-02-15T16:51:19.031Z,25.27
2019-02-15T16:53:46.764Z,24.40
2019-02-15T16:56:14.528Z,25.00
2019-02-15T16:58:42.286Z,23.80
2019-02-15T17:01:10.061Z,22.10
2019-02-15T17:03:37.558Z,20.70
2019-02-15T17:06:05.083Z,19.77
2019-02-15T17:08:33.457Z,19.10
2019-02-15T17:11:01.103Z,18.20
2019-02-15T17:13:28.490Z,18.83
2019-02-15T17:15:55.910Z,19.17
2019-02-15T17:18:23.234Z,20.90
2019-02-15T17:20:50.984Z,21.10
2019-02-15T17:23:18.736Z,22.80
2019-02-15T17:25:46.346Z,22.17
2019-02-15T17:28:14.191Z,22.90
2019-02-15T17:30:41.659Z,21.90
2019-02-15T17:33:10.148Z,21.20
2019-02-15T17:35:38.219Z,20.33
2019-02-15T17:38:05.786Z,23.57
2019-02-15T17:40:33.990Z,29.00
2019-02-15T17:43:02.010Z,35.87
2019-02-15T17:45:31.504Z,33.07
2019-02-15T17:48:00.735Z,31.27
2019-02-15T17:50:28.273Z,30.90
2019-02-15T17:52:55.865Z,31.87
2019-02-15T17:55:23.782Z,27.73
2019-02-15T17:57:51.323Z,32.63
2019-02-15T18:00:21.212Z,32.37
2019-02-15T18:02:48.794Z,28.30
2019-02-15T18:05:16.310Z,27.83
2019-02-15T18:07:46.115Z,24.90
2019-02-15T18:10:13.891Z,23.40
2019-02-15T18:12:41.658Z,23.43
2019-02-15T18:15:09.135Z,26.27
2019-02-15T18:17:36.620Z,28.47
2019-02-15T18:20:04.319Z,33.17
2019-02-15T18:22:31.671Z,35.90
2019-02-15T18:24:59.758Z,33.87
2019-02-15T18:27:27.810Z,36.13
2019-02-15T18:29:55.411Z,35.47
2019-02-15T18:32:23.265Z,32.40
2019-02-15T18:34:51.135Z,27.37
2019-02-15T18:37:20.329Z,25.23
2019-02-15T18:39:47.686Z,22.03
2019-02-15T18:42:15.502Z,38.17
2019-02-15T18:44:43.001Z,47.90
2019-02-15T18:47:10.532Z,47.60
2019-02-15T18:49:38.240Z,37.13
2019-02-15T18:52:06.098Z,29.60
2019-02-15T18:54:34.160Z,25.37
2019-02-15T18:57:01.743Z,23.70
2019-02-15T18:59:29.688Z,24.33
2019-02-15T19:01:58.211Z,25.73
2019-02-15T19:04:25.735Z,30.73
2019-02-15T19:06:53.547Z,31.30
2019-02-15T19:09:20.949Z,28.03
2019-02-15T19:11:48.516Z,23.57
2019-02-15T19:14:15.903Z,21.40
2019-02-15T19:16:43.313Z,20.03
2019-02-15T19:19:10.855Z,19.70
2019-02-15T19:21:38.352Z,19.30
2019-02-15T19:24:06.014Z,19.03
2019-02-15T19:26:34.290Z,24.00
2019-02-15T19:29:02.903Z,29.53
2019-02-15T19:31:30.524Z,32.30
2019-02-15T19:33:58.311Z,32.60
2019-02-15T19:36:26.066Z,29.57
2019-02-15T19:38:53.427Z,25.13
2019-02-15T19:41:20.988Z,24.07
2019-02-15T19:43:48.629Z,28.70
2019-02-15T19:46:16.288Z,35.40
2019-02-15T19:48:44.380Z,37.90
2019-02-15T19:51:13.631Z,46.07
2019-02-15T19:53:41.254Z,42.37
2019-02-15T19:56:08.929Z,33.90
2019-02-15T19:58:36.502Z,27.73
2019-02-15T20:01:04.095Z,24.63
2019-02-15T20:03:32.317Z,24.87
2019-02-15T20:06:00.304Z,23.10
2019-02-15T20:08:28.222Z,24.80
2019-02-15T20:10:55.908Z,23.20
2019-02-15T20:13:23.610Z,20.97
2019-02-15T20:15:51.121Z,24.63
2019-02-15T20:18:18.684Z,24.20
2019-02-15T20:20:47.030Z,23.47
2019-02-15T20:23:14.873Z,18.90
2019-02-15T20:25:42.521Z,17.90
2019-02-15T20:28:14.052Z,18.20
2019-02-15T20:30:39.741Z,18.60
2019-02-15T20:33:07.176Z,19.20
2019-02-15T20:35:35.600Z,19.37
2019-02-15T20:38:03.581Z,18.90
2019-02-15T20:40:31.717Z,18.37
2019-02-15T20:42:59.711Z,16.80
2019-02-15T20:45:27.896Z,17.10
2019-02-15T20:47:56.032Z,18.23
2019-02-15T20:50:24.024Z,17.80
2019-02-15T20:52:51.615Z,16.85
2019-02-15T20:55:19.649Z,15.63
2019-02-15T20:57:47.266Z,17.03
2019-02-15T21:00:25.003Z,16.40
2019-02-15T21:02:52.760Z,15.77
2019-02-15T21:05:20.871Z,16.93
2019-02-15T21:07:49.920Z,16.77
2019-02-15T21:10:18.371Z,22.53
2019-02-15T21:12:46.104Z,32.50
2019-02-15T21:15:13.894Z,33.58
2019-02-15T21:17:41.782Z,25.08
2019-02-15T21:20:10.148Z,34.45
2019-02-15T21:22:38.294Z,34.23
2019-02-15T21:25:07.141Z,34.33
2019-02-15T21:27:34.823Z,35.95
2019-02-15T21:30:02.444Z,34.53
2019-02-15T21:32:30.514Z,28.33
2019-02-15T21:34:58.268Z,28.20
2019-02-15T21:37:25.942Z,24.98
2019-02-15T21:39:53.428Z,18.90
2019-02-15T21:42:20.855Z,17.87
2019-02-15T21:44:48.219Z,17.57
2019-02-15T21:47:15.871Z,20.35
2019-02-15T21:49:43.413Z,19.35
2019-02-15T21:52:11.104Z,19.50
2019-02-15T21:54:38.440Z,19.23
2019-02-15T21:57:05.800Z,17.30
2019-02-15T21:59:33.218Z,14.20
2019-02-15T22:02:00.680Z,17.03
2019-02-15T22:04:28.486Z,22.13
2019-02-15T22:06:56.559Z,21.73
2019-02-15T22:09:24.332Z,25.35
2019-02-15T22:11:52.188Z,29.42
2019-02-15T22:14:19.874Z,27.07
2019-02-15T22:16:47.715Z,27.50
2019-02-15T22:19:15.135Z,24.77
2019-02-15T22:21:42.646Z,24.07
2019-02-15T22:24:10.038Z,21.05
2019-02-15T22:26:37.942Z,18.95
2019-02-15T22:29:05.610Z,16.75
2019-02-15T22:31:33.366Z,16.50
2019-02-15T22:34:00.855Z,16.95
2019-02-15T22:36:28.393Z,15.88
2019-02-15T22:38:55.932Z,16.10
2019-02-15T22:41:23.322Z,14.13
2019-02-15T22:43:50.882Z,17.10
2019-02-15T22:46:19.130Z,18.15
2019-02-15T22:48:46.485Z,21.37
2019-02-15T22:51:13.983Z,25.02
2019-02-15T22:53:41.387Z,24.75
2019-02-15T22:56:09.045Z,25.37
2019-02-15T22:58:36.741Z,23.20
2019-02-15T23:01:08.039Z,23.85
2019-02-15T23:03:36.166Z,21.30
2019-02-15T23:06:03.894Z,17.70
2019-02-15T23:08:32.472Z,18.35
2019-02-15T23:10:59.832Z,16.05
2019-02-15T23:13:27.322Z,13.80
2019-02-15T23:15:54.955Z,14.98
2019-02-15T23:18:22.688Z,13.08
2019-02-15T23:20:50.096Z,13.20
2019-02-15T23:23:17.753Z,12.23
2019-02-15T23:25:45.105Z,12.37
2019-02-15T23:28:12.469Z,11.63
2019-02-15T23:30:40.158Z,10.55
2019-02-15T23:33:07.667Z,11.70
2019-02-15T23:35:34.993Z,11.60
2019-02-15T23:38:02.499Z,13.62
2019-02-15T23:40:30.006Z,14.40
2019-02-15T23:42:57.924Z,11.75
2019-02-15T23:45:25.589Z,14.68
2019-02-15T23:47:52.964Z,14.00
2019-02-15T23:50:20.520Z,13.80
2019-02-15T23:52:48.069Z,12.53
2019-02-15T23:55:15.599Z,11.35
2019-02-15T23:57:43.376Z,11.85
